createdAt,value
2022-12-23T00:01:40.814Z,87.27
2022-12-23T00:04:10.799Z,89.13
2022-12-23T00:06:39.179Z,90.20
2022-12-23T00:09:09.001Z,84.22
2022-12-23T00:11:38.849Z,85.07
2022-12-23T00:14:25.213Z,77.85
2022-12-23T00:16:53.332Z,74.60
2022-12-23T00:19:21.570Z,76.37
2022-12-23T00:21:49.915Z,75.67
2022-12-23T00:24:17.885Z,74.45
2022-12-23T00:26:45.736Z,71.10
2022-12-23T00:29:13.740Z,70.90
2022-12-23T00:31:41.824Z,69.42
2022-12-23T00:34:12.043Z,69.03
2022-12-23T00:36:41.522Z,70.90
2022-12-23T00:39:33.771Z,71.28
2022-12-23T00:42:19.439Z,67.60
2022-12-23T00:44:49.642Z,69.60
2022-12-23T00:47:39.161Z,68.37
2022-12-23T00:50:08.581Z,66.97
2022-12-23T00:52:36.337Z,66.62
2022-12-23T00:55:05.150Z,65.60
2022-12-23T00:57:33.083Z,64.53
2022-12-23T01:00:00.847Z,65.35
2022-12-23T01:02:47.132Z,64.47
2022-12-23T01:05:33.886Z,60.75
2022-12-23T01:08:01.704Z,59.50
2022-12-23T01:10:29.617Z,63.68
2022-12-23T01:12:57.429Z,59.70
2022-12-23T01:15:25.161Z,58.28
2022-12-23T01:17:52.970Z,59.63
2022-12-23T01:20:20.733Z,58.92
2022-12-23T01:22:49.088Z,61.05
2022-12-23T01:25:17.553Z,60.85
2022-12-23T01:27:45.411Z,59.80
2022-12-23T01:30:14.041Z,60.25
2022-12-23T01:32:41.810Z,59.48
2022-12-23T01:35:09.572Z,60.20
2022-12-23T01:37:37.526Z,59.42
2022-12-23T01:40:07.241Z,58.40
2022-12-23T01:42:43.902Z,56.90
2022-12-23T01:45:22.764Z,58.15
2022-12-23T01:48:10.229Z,57.95
2022-12-23T01:50:45.720Z,62.38
2022-12-23T01:55:58.750Z,59.88
2022-12-23T01:58:48.396Z,63.02
2022-12-23T02:01:34.899Z,63.92
2022-12-23T02:04:12.346Z,63.68
2022-12-23T02:07:01.999Z,62.83
2022-12-23T02:09:34.282Z,63.98
2022-12-23T02:12:45.980Z,65.70
2022-12-23T02:15:59.015Z,63.83
2022-12-23T02:18:48.566Z,62.58
2022-12-23T02:21:41.862Z,61.68
2022-12-23T02:24:30.396Z,60.85
2022-12-23T02:27:03.567Z,63.38
2022-12-23T02:30:01.011Z,64.90
2022-12-23T02:32:55.752Z,60.40
2022-12-23T02:35:49.288Z,60.38
2022-12-23T02:38:48.544Z,63.02
2022-12-23T02:41:35.980Z,62.00
2022-12-23T02:44:46.152Z,62.45
2022-12-23T02:47:37.285Z,64.60
2022-12-23T02:50:15.942Z,61.42
2022-12-23T02:52:46.707Z,63.40
2022-12-23T02:55:22.313Z,59.98
2022-12-23T02:57:54.554Z,59.55
2022-12-23T03:00:22.891Z,65.97
2022-12-23T03:02:51.071Z,63.78
2022-12-23T03:05:33.175Z,66.28
2022-12-23T03:08:07.063Z,69.97
2022-12-23T03:10:57.080Z,68.78
2022-12-23T03:13:49.743Z,65.92
2022-12-23T03:16:24.846Z,66.33
2022-12-23T03:19:07.207Z,63.58
2022-12-23T03:21:54.440Z,60.78
2022-12-23T03:25:11.109Z,63.00
2022-12-23T03:27:47.221Z,60.10
2022-12-23T03:30:18.418Z,59.23
2022-12-23T03:33:06.886Z,59.13
2022-12-23T03:35:39.698Z,57.80
2022-12-23T03:38:10.145Z,53.40
2022-12-23T03:40:41.616Z,58.20
2022-12-23T03:43:17.928Z,63.75
2022-12-23T03:45:50.643Z,66.47
2022-12-23T03:48:35.559Z,66.70
2022-12-23T03:51:14.532Z,68.05
2022-12-23T03:53:53.345Z,68.92
2022-12-23T03:56:32.203Z,68.10
2022-12-23T03:59:08.290Z,71.80
2022-12-23T04:02:10.685Z,75.08
2022-12-23T04:05:19.658Z,78.50
2022-12-23T04:07:58.011Z,86.22
2022-12-23T04:10:27.068Z,84.77
2022-12-23T04:12:55.120Z,87.33
2022-12-23T04:15:25.551Z,87.75
2022-12-23T04:17:58.049Z,85.28
2022-12-23T04:20:25.764Z,85.15
2022-12-23T04:22:53.505Z,83.47
2022-12-23T04:25:21.051Z,76.25
2022-12-23T04:27:48.961Z,69.80
2022-12-23T04:30:18.202Z,69.10
2022-12-23T04:32:46.041Z,65.05
2022-12-23T04:35:13.900Z,61.33
2022-12-23T04:37:41.829Z,58.98
2022-12-23T04:40:09.948Z,57.88
2022-12-23T04:42:37.678Z,59.70
2022-12-23T04:45:06.507Z,62.73
2022-12-23T04:47:35.145Z,61.37
2022-12-23T04:50:04.055Z,64.67
2022-12-23T04:52:31.675Z,66.20
2022-12-23T04:54:59.297Z,67.60
2022-12-23T04:57:27.247Z,66.67
2022-12-23T04:59:55.196Z,64.45
2022-12-23T05:02:23.301Z,68.40
2022-12-23T05:04:51.196Z,69.10
2022-12-23T05:07:19.037Z,69.30
2022-12-23T05:09:46.641Z,67.92
2022-12-23T05:12:14.536Z,68.55
2022-12-23T05:14:42.229Z,67.27
2022-12-23T05:17:10.150Z,66.35
2022-12-23T05:19:37.757Z,69.32
2022-12-23T05:22:05.441Z,69.00
2022-12-23T05:24:33.252Z,70.42
2022-12-23T05:27:00.972Z,70.78
2022-12-23T05:29:29.175Z,69.12
2022-12-23T05:31:56.994Z,69.50
2022-12-23T05:34:24.796Z,73.90
2022-12-23T05:36:52.535Z,72.75
2022-12-23T05:39:20.532Z,72.53
2022-12-23T05:41:48.397Z,69.92
2022-12-23T05:44:15.967Z,69.25
2022-12-23T05:46:43.920Z,68.95
2022-12-23T05:49:11.759Z,68.80
2022-12-23T05:51:39.661Z,67.32
2022-12-23T05:54:07.368Z,72.12
2022-12-23T05:56:35.299Z,73.28
2022-12-23T05:59:04.034Z,73.20
2022-12-23T06:01:32.477Z,73.28
2022-12-23T06:04:00.247Z,71.70
2022-12-23T06:06:30.003Z,70.12
2022-12-23T06:09:00.076Z,70.57
2022-12-23T06:11:27.436Z,71.20
2022-12-23T06:13:55.021Z,68.80
2022-12-23T06:16:22.936Z,70.57
2022-12-23T06:18:57.837Z,63.33
2022-12-23T06:21:25.558Z,64.12
2022-12-23T06:23:53.066Z,70.22
2022-12-23T06:26:21.271Z,74.07
2022-12-23T06:28:49.397Z,81.47
2022-12-23T06:31:18.880Z,75.28
2022-12-23T06:33:49.651Z,70.42
2022-12-23T06:36:18.435Z,69.58
2022-12-23T06:38:46.112Z,72.72
2022-12-23T06:41:15.649Z,79.77
2022-12-23T06:43:43.507Z,77.25
2022-12-23T06:46:11.902Z,80.75
2022-12-23T06:48:40.194Z,84.50
2022-12-23T06:51:10.695Z,80.30
2022-12-23T06:53:39.138Z,91.08
2022-12-23T06:56:07.290Z,89.45
2022-12-23T06:58:35.064Z,89.17
2022-12-23T07:01:05.859Z,91.67
2022-12-23T07:03:33.864Z,83.47
2022-12-23T07:06:01.955Z,91.70
2022-12-23T07:08:29.702Z,80.62
2022-12-23T07:10:59.729Z,80.10
2022-12-23T07:13:27.511Z,75.50
2022-12-23T07:15:55.181Z,77.10
2022-12-23T07:18:23.595Z,87.85
2022-12-23T07:20:52.219Z,94.25
2022-12-23T07:23:19.884Z,101.22
2022-12-23T07:25:47.447Z,107.70
2022-12-23T07:28:15.149Z,103.22
2022-12-23T07:30:42.856Z,106.43
2022-12-23T07:33:10.778Z,103.12
2022-12-23T07:35:38.330Z,101.27
2022-12-23T07:38:05.968Z,100.97
2022-12-23T07:40:33.455Z,97.00
2022-12-23T07:43:01.624Z,100.60
2022-12-23T07:45:31.786Z,103.05
2022-12-23T07:48:01.756Z,99.87
2022-12-23T07:50:29.506Z,99.05
2022-12-23T07:52:57.504Z,99.85
2022-12-23T07:55:25.277Z,103.15
2022-12-23T07:57:53.164Z,105.30
2022-12-23T08:00:21.786Z,113.90
2022-12-23T08:02:49.575Z,117.70
2022-12-23T08:05:18.339Z,109.72
2022-12-23T08:07:48.305Z,108.17
2022-12-23T08:10:16.235Z,96.30
2022-12-23T08:12:46.102Z,104.45
2022-12-23T08:15:13.974Z,111.77
2022-12-23T08:17:41.526Z,118.95
2022-12-23T08:20:09.833Z,107.12
2022-12-23T08:22:37.671Z,94.07
2022-12-23T08:25:06.234Z,110.00
2022-12-23T08:27:37.281Z,97.47
2022-12-23T08:30:06.505Z,93.70
2022-12-23T08:32:34.163Z,105.03
2022-12-23T08:35:02.886Z,102.85
2022-12-23T08:37:30.915Z,105.60
2022-12-23T08:39:58.944Z,106.60
2022-12-23T08:42:29.769Z,112.83
2022-12-23T08:44:58.639Z,106.03
2022-12-23T08:47:26.163Z,108.37
2022-12-23T08:49:55.443Z,113.92
2022-12-23T08:52:23.200Z,101.50
2022-12-23T08:54:50.967Z,96.57
2022-12-23T08:57:18.468Z,81.67
2022-12-23T08:59:49.316Z,81.37
2022-12-23T09:02:18.438Z,71.25
2022-12-23T09:04:46.329Z,69.82
2022-12-23T09:07:13.938Z,66.15
2022-12-23T09:09:41.780Z,68.00
2022-12-23T09:12:11.420Z,61.23
2022-12-23T09:14:39.668Z,62.80
2022-12-23T09:17:07.469Z,62.62
2022-12-23T09:19:35.166Z,63.58
2022-12-23T09:22:02.781Z,58.80
2022-12-23T09:24:32.308Z,60.52
2022-12-23T09:27:00.113Z,61.25
2022-12-23T09:29:27.843Z,61.33
2022-12-23T09:31:55.479Z,64.95
2022-12-23T09:34:26.431Z,59.53
2022-12-23T09:36:55.633Z,56.92
2022-12-23T09:39:23.883Z,58.80
2022-12-23T09:42:02.931Z,55.25
2022-12-23T09:45:00.651Z,55.52
2022-12-23T09:47:31.364Z,57.65
2022-12-23T09:50:16.461Z,60.20
2022-12-23T09:53:07.094Z,60.80
2022-12-23T09:55:46.089Z,60.75
2022-12-23T09:58:37.321Z,61.75
2022-12-23T10:01:44.823Z,114.88
2022-12-23T10:04:38.541Z,57.03
2022-12-23T10:07:23.639Z,58.48
2022-12-23T10:09:54.682Z,61.28
2022-12-23T10:12:40.316Z,57.13
2022-12-23T10:15:19.504Z,58.52
2022-12-23T10:17:51.605Z,59.03
2022-12-23T10:20:31.007Z,52.85
2022-12-23T10:23:00.331Z,51.98
2022-12-23T10:25:39.148Z,49.30
2022-12-23T10:28:09.840Z,48.63
2022-12-23T10:33:19.275Z,48.80
2022-12-23T10:36:05.311Z,48.78
2022-12-23T10:39:16.501Z,55.20
2022-12-23T10:42:24.840Z,50.78
2022-12-23T10:45:23.286Z,53.98
2022-12-23T10:48:21.129Z,52.80
2022-12-23T10:51:03.153Z,48.95
2022-12-23T10:54:06.997Z,45.10
2022-12-23T10:56:34.557Z,41.05
2022-12-23T10:59:02.224Z,39.92
2022-12-23T11:01:33.063Z,35.40
2022-12-23T11:04:14.249Z,36.38
2022-12-23T11:06:46.754Z,39.25
2022-12-23T11:09:22.765Z,42.98
2022-12-23T11:12:02.569Z,37.80
2022-12-23T11:14:44.523Z,37.65
2022-12-23T11:17:29.129Z,40.58
2022-12-23T11:20:13.685Z,42.10
2022-12-23T11:22:51.869Z,40.63
2022-12-23T11:25:42.303Z,42.17
2022-12-23T11:28:21.433Z,46.53
2022-12-23T11:30:56.553Z,46.15
2022-12-23T11:33:37.856Z,44.65
2022-12-23T11:36:17.378Z,45.40
2022-12-23T11:39:08.697Z,46.48
2022-12-23T11:41:47.625Z,45.83
2022-12-23T11:44:35.570Z,44.55
2022-12-23T11:47:25.532Z,45.38
2022-12-23T11:50:02.671Z,46.37
2022-12-23T11:52:33.456Z,44.40
2022-12-23T11:55:04.136Z,43.02
2022-12-23T11:57:47.930Z,48.80
2022-12-23T12:00:28.419Z,42.20
2022-12-23T12:03:03.663Z,45.28
2022-12-23T12:05:48.048Z,44.35
2022-12-23T12:08:23.203Z,46.53
2022-12-23T12:10:53.513Z,43.65
2022-12-23T12:13:40.952Z,40.78
2022-12-23T12:16:54.294Z,40.15
2022-12-23T12:19:35.035Z,44.42
2022-12-23T12:22:11.104Z,40.03
2022-12-23T12:24:50.089Z,39.65
2022-12-23T12:27:19.796Z,52.38
2022-12-23T12:30:07.695Z,54.20
2022-12-23T12:32:49.145Z,54.65
2022-12-23T12:35:43.542Z,57.10
2022-12-23T12:38:29.732Z,69.12
2022-12-23T12:41:17.816Z,56.53
2022-12-23T12:43:56.795Z,55.12
2022-12-23T12:46:33.451Z,51.50
2022-12-23T12:49:26.875Z,50.35
2022-12-23T12:52:13.694Z,47.80
2022-12-23T12:55:08.120Z,54.83
2022-12-23T12:57:36.531Z,52.62
2022-12-23T13:00:07.129Z,53.75
2022-12-23T13:03:21.741Z,57.23
2022-12-23T13:06:16.410Z,53.78
2022-12-23T13:09:01.727Z,51.48
2022-12-23T13:11:44.654Z,45.65
2022-12-23T13:14:43.433Z,43.60
2022-12-23T13:17:25.490Z,48.98
2022-12-23T13:20:24.368Z,49.80
2022-12-23T13:23:06.339Z,49.03
2022-12-23T13:25:32.684Z,57.17
2022-12-23T13:28:17.830Z,47.25
2022-12-23T13:31:16.578Z,44.00
2022-12-23T13:34:04.856Z,47.83
2022-12-23T13:36:50.418Z,47.03
2022-12-23T13:39:38.480Z,49.63
2022-12-23T13:42:11.433Z,44.33
2022-12-23T13:44:39.479Z,45.20
2022-12-23T13:47:30.326Z,45.73
2022-12-23T13:50:15.709Z,63.00
2022-12-23T13:53:20.021Z,52.27
2022-12-23T13:56:11.060Z,57.78
2022-12-23T13:58:40.507Z,48.85
2022-12-23T14:01:13.683Z,54.85
2022-12-23T14:03:41.667Z,94.95
2022-12-23T14:06:36.281Z,82.17
2022-12-23T14:09:04.747Z,62.88
2022-12-23T14:11:33.968Z,53.40
2022-12-23T14:14:07.885Z,54.23
2022-12-23T14:17:04.963Z,57.17
2022-12-23T14:19:47.151Z,57.83
2022-12-23T14:22:52.249Z,62.15
2022-12-23T14:25:57.911Z,61.98
2022-12-23T14:28:47.518Z,67.37
2022-12-23T14:31:32.802Z,66.17
2022-12-23T14:34:08.058Z,71.47
2022-12-23T14:36:35.870Z,76.65
2022-12-23T14:39:17.970Z,74.97
2022-12-23T14:41:52.178Z,80.22
2022-12-23T14:44:43.160Z,87.45
2022-12-23T14:47:36.073Z,74.67
2022-12-23T14:50:34.034Z,74.75
2022-12-23T14:53:26.193Z,77.97
2022-12-23T14:56:38.580Z,76.17
2022-12-23T14:59:47.718Z,87.20
2022-12-23T15:02:37.241Z,80.85
2022-12-23T15:05:05.908Z,119.47
2022-12-23T15:07:38.112Z,106.22
2022-12-23T15:10:16.153Z,87.12
2022-12-23T15:12:57.099Z,75.47
2022-12-23T15:15:28.134Z,78.05
2022-12-23T15:18:12.004Z,81.47
2022-12-23T15:20:40.388Z,86.72
2022-12-23T15:23:14.817Z,91.35
2022-12-23T15:25:48.454Z,87.85
2022-12-23T15:28:30.465Z,87.20
2022-12-23T15:30:58.155Z,86.25
2022-12-23T15:36:04.010Z,86.22
2022-12-23T15:38:35.858Z,80.87
2022-12-23T15:41:14.752Z,76.90
2022-12-23T15:43:43.999Z,69.42
2022-12-23T15:46:28.530Z,69.77
2022-12-23T15:48:51.241Z,65.00
2022-12-23T15:54:08.282Z,62.53
2022-12-23T15:56:39.720Z,67.12
2022-12-23T15:59:12.716Z,64.55
2022-12-23T16:01:41.580Z,62.75
2022-12-23T16:04:15.084Z,60.40
2022-12-23T16:06:51.254Z,60.48
2022-12-23T16:09:24.803Z,60.15
2022-12-23T16:12:06.477Z,61.28
2022-12-23T16:14:38.853Z,60.05
2022-12-23T16:17:13.459Z,60.58
2022-12-23T16:19:55.588Z,63.10
2022-12-23T16:22:30.361Z,64.55
2022-12-23T16:25:21.937Z,63.80
2022-12-23T16:27:57.598Z,70.25
2022-12-23T16:30:35.316Z,76.82
2022-12-23T16:33:08.249Z,69.72
2022-12-23T16:35:42.697Z,73.35
2022-12-23T16:38:21.355Z,82.80
2022-12-23T16:40:54.851Z,81.00
2022-12-23T16:43:24.737Z,86.10
2022-12-23T16:45:55.815Z,82.12
2022-12-23T16:48:30.829Z,80.83
2022-12-23T16:50:59.853Z,86.50
2022-12-23T16:53:27.937Z,103.10
2022-12-23T16:56:00.528Z,110.70
2022-12-23T16:58:25.252Z,110.72
2022-12-23T17:00:53.256Z,110.05
2022-12-23T17:03:21.290Z,104.40
2022-12-23T17:05:49.076Z,108.45
2022-12-23T17:08:17.154Z,97.72
2022-12-23T17:10:45.405Z,97.95
2022-12-23T17:13:17.105Z,96.60
2022-12-23T17:15:45.317Z,107.37
2022-12-23T17:18:16.827Z,100.30
2022-12-23T17:20:46.289Z,101.00
2022-12-23T17:23:32.027Z,98.55
2022-12-23T17:28:31.605Z,87.85
2022-12-23T17:31:00.733Z,95.75
2022-12-23T17:33:31.336Z,95.03
2022-12-23T17:36:00.093Z,94.60
2022-12-23T17:38:30.870Z,96.25
2022-12-23T17:40:58.771Z,95.55
2022-12-23T17:43:26.659Z,96.42
2022-12-23T17:45:54.461Z,97.45
2022-12-23T17:48:28.009Z,96.55
2022-12-23T17:50:51.779Z,99.92
2022-12-23T17:53:19.885Z,86.00
2022-12-23T17:55:47.517Z,84.40
2022-12-23T17:58:16.248Z,90.10
2022-12-23T18:00:43.912Z,91.75
2022-12-23T18:03:22.282Z,92.05
2022-12-23T18:05:52.973Z,92.60
2022-12-23T18:08:19.745Z,97.27
2022-12-23T18:10:47.588Z,88.85
2022-12-23T18:13:18.645Z,100.90
2022-12-23T18:15:47.346Z,93.05
2022-12-23T18:18:26.455Z,87.40
2022-12-23T18:20:52.373Z,84.25
2022-12-23T18:23:27.634Z,85.53
2022-12-23T18:25:56.955Z,92.12
2022-12-23T18:28:26.081Z,85.95
2022-12-23T18:30:57.072Z,86.78
2022-12-23T18:33:26.712Z,86.60
2022-12-23T18:35:54.573Z,91.78
2022-12-23T18:38:22.508Z,93.10
2022-12-23T18:40:52.097Z,95.30
2022-12-23T18:43:23.250Z,97.60
2022-12-23T18:45:53.526Z,96.32
2022-12-23T18:48:21.994Z,95.10
2022-12-23T18:50:49.559Z,96.30
2022-12-23T18:53:25.168Z,100.12
2022-12-23T18:55:54.422Z,99.15
2022-12-23T18:58:22.889Z,97.65
2022-12-23T19:00:54.854Z,102.45
2022-12-23T19:03:29.633Z,102.72
2022-12-23T19:06:03.774Z,101.10
2022-12-23T19:08:31.592Z,99.90
2022-12-23T19:11:00.388Z,99.67
2022-12-23T19:13:28.208Z,101.70
2022-12-23T19:15:56.241Z,100.97
2022-12-23T19:18:24.656Z,102.50
2022-12-23T19:20:52.323Z,106.80
2022-12-23T19:23:19.941Z,107.45
2022-12-23T19:25:54.828Z,97.33
2022-12-23T19:28:17.328Z,93.27
2022-12-23T19:30:45.321Z,89.72
2022-12-23T19:33:13.099Z,86.55
2022-12-23T19:35:42.191Z,87.85
2022-12-23T19:38:10.343Z,88.20
2022-12-23T19:40:38.201Z,90.47
2022-12-23T19:43:06.290Z,83.33
2022-12-23T19:45:34.138Z,80.22
2022-12-23T19:48:01.912Z,74.90
2022-12-23T19:50:30.000Z,81.63
2022-12-23T19:53:01.761Z,100.27
2022-12-23T19:55:31.854Z,106.05
2022-12-23T19:57:59.507Z,103.05
2022-12-23T20:00:27.261Z,97.50
2022-12-23T20:02:58.859Z,102.25
2022-12-23T20:05:26.724Z,96.87
2022-12-23T20:07:56.160Z,94.15
2022-12-23T20:10:23.917Z,99.10
2022-12-23T20:12:51.494Z,100.38
2022-12-23T20:15:19.369Z,103.62
2022-12-23T20:17:47.443Z,108.90
2022-12-23T20:20:15.686Z,103.75
2022-12-23T20:22:43.588Z,97.65
2022-12-23T20:25:11.624Z,93.40
2022-12-23T20:27:42.053Z,93.85
2022-12-23T20:30:11.153Z,96.42
2022-12-23T20:32:40.070Z,94.37
2022-12-23T20:35:11.496Z,91.35
2022-12-23T20:37:39.187Z,85.22
2022-12-23T20:40:08.965Z,81.75
2022-12-23T20:42:37.240Z,80.90
2022-12-23T20:45:06.241Z,78.30
2022-12-23T20:47:35.925Z,76.92
2022-12-23T20:50:04.255Z,75.00
2022-12-23T20:52:32.483Z,75.05
2022-12-23T20:55:01.149Z,72.45
2022-12-23T20:57:28.973Z,71.42
2022-12-23T20:59:57.083Z,74.27
2022-12-23T21:02:27.860Z,77.58
2022-12-23T21:04:55.523Z,79.95
2022-12-23T21:07:26.412Z,76.85
2022-12-23T21:09:54.349Z,77.82
2022-12-23T21:12:22.699Z,79.62
2022-12-23T21:14:51.309Z,81.72
2022-12-23T21:17:20.644Z,84.65
2022-12-23T21:19:51.391Z,84.47
2022-12-23T21:22:19.650Z,90.38
2022-12-23T21:24:47.523Z,95.85
2022-12-23T21:27:16.868Z,92.55
2022-12-23T21:29:44.786Z,97.02
2022-12-23T21:32:12.650Z,96.25
2022-12-23T21:34:42.504Z,99.07
2022-12-23T21:37:10.530Z,89.00
2022-12-23T21:39:38.236Z,94.90
2022-12-23T21:42:06.442Z,87.82
2022-12-23T21:44:34.169Z,82.08
2022-12-23T21:47:02.335Z,84.62
2022-12-23T21:49:30.451Z,81.22
2022-12-23T21:51:58.389Z,79.30
2022-12-23T21:54:26.244Z,78.72
2022-12-23T21:56:55.268Z,79.97
2022-12-23T21:59:23.205Z,74.67
2022-12-23T22:01:51.664Z,73.78
2022-12-23T22:04:22.109Z,80.92
2022-12-23T22:06:50.094Z,75.78
2022-12-23T22:09:19.824Z,67.32
2022-12-23T22:11:48.160Z,64.00
2022-12-23T22:14:19.052Z,64.27
2022-12-23T22:16:47.715Z,64.70
2022-12-23T22:19:15.968Z,68.50
2022-12-23T22:21:44.954Z,64.40
2022-12-23T22:24:13.265Z,60.75
2022-12-23T22:26:42.552Z,55.95
2022-12-23T22:29:11.390Z,50.63
2022-12-23T22:31:49.503Z,52.15
2022-12-23T22:34:22.608Z,63.23
2022-12-23T22:36:50.763Z,61.05
2022-12-23T22:39:22.014Z,58.17
2022-12-23T22:41:52.092Z,60.17
2022-12-23T22:44:20.909Z,63.13
2022-12-23T22:46:49.436Z,64.95
2022-12-23T22:49:17.753Z,63.55
2022-12-23T22:51:45.629Z,65.50
2022-12-23T22:54:13.950Z,65.35
2022-12-23T22:56:42.269Z,64.25
2022-12-23T22:59:21.497Z,65.17
2022-12-23T23:01:50.989Z,62.93
2022-12-23T23:04:18.932Z,64.12
2022-12-23T23:06:49.222Z,63.90
2022-12-23T23:09:19.706Z,63.30
2022-12-23T23:11:49.111Z,64.82
2022-12-23T23:14:18.012Z,64.80
2022-12-23T23:16:45.810Z,61.45
2022-12-23T23:19:14.560Z,60.85
2022-12-23T23:21:42.555Z,59.95
2022-12-23T23:24:11.485Z,63.08
2022-12-23T23:26:39.142Z,64.95
2022-12-23T23:29:06.981Z,62.58
2022-12-23T23:31:43.659Z,64.27
2022-12-23T23:34:04.605Z,63.35
2022-12-23T23:36:31.872Z,62.38
2022-12-23T23:38:59.437Z,66.28
2022-12-23T23:41:27.238Z,68.17
2022-12-23T23:43:55.190Z,63.90
2022-12-23T23:46:22.963Z,66.97
2022-12-23T23:48:50.683Z,65.15
2022-12-23T23:51:18.849Z,64.40
2022-12-23T23:53:46.249Z,64.10
2022-12-23T23:56:14.202Z,61.30
2022-12-23T23:58:42.309Z,63.45
